This is the latest recevied weather packets stored in our database for station/object WB3IGR. If no packets are shown the sender has not sent any weather packets the latest 1 day(s).
| Time | Temp. | Humidity | Pressure | Rain* | Wind** | Luminosity | Snow |
|---|---|---|---|---|---|---|---|
| 1836274674 | 20° C | 62% | 1021.4 hPa | 0 mm | 1.79 m/s, 90° | 0 W/m² | - |
| 1836274527 | 20° C | 61% | 1021.6 hPa | 0 mm | 2.68 m/s, 80° | 0 W/m² | - |
| 1836274372 | 20° C | 65% | 1021.3 hPa | 0 mm | 1.34 m/s, 57° | 0 W/m² | - |
| 1836274225 | 20.56° C | 61% | 1021.4 hPa | 0 mm | 1.79 m/s, 104° | 0 W/m² | - |
| 1836274070 | 19.44° C | 66% | 1021.3 hPa | 0 mm | 0.89 m/s, 114° | 0 W/m² | - |
| 1778037703 | 21.11° C | 55% | 1010.9 hPa | 0 mm | 2.68 m/s, 226° | 0 W/m² | - |
| 1778037400 | 20.56° C | 56% | 1010.9 hPa | 0 mm | 3.58 m/s, 286° | 0 W/m² | - |
| 1778037097 | 21.11° C | 56% | 1011 hPa | 0 mm | 3.13 m/s, 234° | 0 W/m² | - |
| 1778036795 | 20.56° C | 56% | 1010.8 hPa | 0 mm | 4.02 m/s, 245° | 0 W/m² | - |
| 1778036487 | 20.56° C | 57% | 1010.6 hPa | 0 mm | 2.24 m/s, 242° | 0 W/m² | - |
| 1778036184 | 20.56° C | 56% | 1010.9 hPa | 0 mm | 2.68 m/s, 234° | 0 W/m² | - |
| 1778035879 | 20.56° C | 55% | 1010.9 hPa | 0 mm | 3.58 m/s, 224° | 0 W/m² | - |
| 1778035578 | 20.56° C | 55% | 1011.1 hPa | 0 mm | 4.47 m/s, 168° | 0 W/m² | - |
| 1778035273 | 20.56° C | 55% | 1011.1 hPa | 0 mm | 3.13 m/s, 198° | 0 W/m² | - |
| 1778034970 | 20.56° C | 55% | 1010.9 hPa | 0 mm | 2.68 m/s, 257° | 0 W/m² | - |
| 1778034667 | 20.56° C | 55% | 1010.8 hPa | 0 mm | 2.68 m/s, 241° | 0 W/m² | - |
| 1778034364 | 20.56° C | 55% | 1010.9 hPa | 0 mm | 4.02 m/s, 267° | 0 W/m² | - |
| 1778034062 | 21.11° C | 54% | 1010.8 hPa | 0 mm | 1.79 m/s, 224° | 0 W/m² | - |
| 1778033759 | 21.11° C | 54% | 1010.8 hPa | 0 mm | 2.24 m/s, 213° | 0 W/m² | - |
| 1778033456 | 21.11° C | 53% | 1010.8 hPa | 0 mm | 0.89 m/s, 219° | 0 W/m² | - |
| 1778033153 | 21.11° C | 52% | 1010.8 hPa | 0 mm | 2.68 m/s, 214° | 0 W/m² | - |
| 1778032851 | 21.67° C | 51% | 1010.8 hPa | 0 mm | 3.13 m/s, 238° | 0 W/m² | - |
| 1778032548 | 21.67° C | 51% | 1010.7 hPa | 0 mm | 1.79 m/s, 186° | 0 W/m² | - |
| 1778032245 | 22.22° C | 49% | 1010.7 hPa | 0 mm | 3.13 m/s, 208° | 0 W/m² | - |
| 1778031943 | 22.22° C | 49% | 1010.9 hPa | 0 mm | 2.24 m/s, 190° | 0 W/m² | - |
* Rain latest hour (hover to see other rain measurements)
** Current wind speed in m/s (hover to see current wind gust speed)